Latest Weather Observations for Hobart

IDT60801

Issued at 12:31 pm EST Sunday 25 August 2019 (issued every 10 minutes, with the page automatically refreshed every 10 minutes)

About weather observations | Map of weather stations | Latest weather observations for TAS | Other Formats
Station Details ID: 094029 Name: HOBART (ELLERSLIE ROAD) Lat: -42.89 Lon: 147.33 Height: 50.5 m
Data from the previous 72 hours. | See also: Recent months at Hobart
Date/Time
EST
Temp
°C
App
Temp
°C
Dew
Point
°C
Rel
Hum
%
Delta-T
°C
Wind Press
QNH
hPa
Press
MSL
hPa
Rain since
9am
mm
Dir  Spd
km/h
Gust
km/h
Spd
kts
Gust
kts
25/12:30pm 10.8 5.9 2.1 55 3.7 NW 17 24 9 13 1014.7 1014.8 0.0
25/12:00pm 10.6 5.3 1.7 54 3.7 NW 19 32 10 17 1014.7 1014.8 0.0
25/11:30am 10.6 5.3 1.9 55 3.7 NW 19 26 10 14 1014.6 1014.7 0.0
25/11:00am 10.8 5.8 1.6 53 3.9 NW 17 26 9 14 1014.7 1014.8 0.0
25/10:30am 10.5 5.0 1.9 55 3.6 NW 20 35 11 19 1014.7 1014.8 0.0
25/10:26am 10.3 4.8 1.7 55 3.6 NW 20 35 11 19 1014.6 1014.7 0.0
25/10:00am 9.5 6.0 1.2 56 3.4 E 9 13 5 7 1014.6 1014.7 0.0
25/09:30am 7.7 4.6 1.5 65 2.5 ESE 7 9 4 5 1014.4 1014.5 0.0
25/09:00am 7.5 4.6 1.4 65 2.5 WSW 6 7 3 4 1014.2 1014.3 22.8
25/08:30am 7.2 3.7 1.3 66 2.4 NE 9 11 5 6 1014.0 1014.1 22.8
25/08:00am 5.9 2.8 1.2 72 1.9 WSW 7 11 4 6 1013.8 1013.9 22.8
25/07:30am 5.4 2.4 0.6 71 1.9 ESE 6 9 3 5 1013.4 1013.5 22.8
25/07:00am 5.2 2.2 0.6 72 1.8 SSE 6 9 3 5 1012.7 1012.8 22.8
25/06:30am 5.5 1.9 0.3 69 2.0 WNW 9 19 5 10 1012.5 1012.6 22.8
25/06:00am 5.9 1.9 0.3 67 2.2 WNW 11 15 6 8 1011.9 1011.9 22.8
25/05:30am 7.2 1.6 0.0 60 2.8 WNW 19 28 10 15 1011.8 1011.8 22.8
25/05:00am 6.7 3.5 -0.5 60 2.8 NW 6 9 3 5 1011.3 1011.3 22.8
25/04:30am 6.5 1.3 0.0 63 2.5 WNW 17 24 9 13 1010.8 1010.8 22.8
25/04:00am 6.7 2.6 -0.5 60 2.8 NW 11 17 6 9 1010.2 1010.3 22.8
25/03:30am 6.7 2.6 -0.5 60 2.8 W 11 19 6 10 1009.7 1009.8 22.8
25/03:00am 7.0 3.3 0.0 61 2.7 NW 9 20 5 11 1009.4 1009.5 22.8
25/02:30am 6.4 2.5 1.3 70 2.0 WNW 11 24 6 13 1009.5 1009.6 22.8
25/02:00am 6.7 1.4 1.8 71 2.0 SW 19 32 10 17 1009.0 1009.1 22.8
25/01:30am 6.5 3.0 1.4 70 2.0 SW 9 15 5 8 1008.6 1008.7 22.8
25/01:00am 6.9 1.4 2.0 71 2.0 WSW 20 43 11 23 1008.0 1008.1 22.8
25/12:30am 7.2 2.6 1.7 68 2.2 WNW 15 35 8 19 1007.2 1007.3 22.8
25/12:00am 6.5 0.3 2.0 73 1.8 WSW 24 41 13 22 1006.8 1006.9 22.8
 
Date/Time
EST
Temp
°C
App
Temp
°C
Dew
Point
°C
Rel
Hum
%
Delta-T
°C
Wind Press
QNH
hPa
Press
MSL
hPa
Rain since
9am
mm
Dir  Spd
km/h
Gust
km/h
Spd
kts
Gust
kts
24/11:30pm 6.5 1.1 2.4 75 1.7 SW 20 33 11 18 1006.3 1006.4 22.8
24/11:00pm 6.2 -0.7 2.8 79 1.4 SW 28 43 15 23 1005.7 1005.8 22.8
24/10:30pm 5.8 -2.0 3.1 83 1.1 SW 33 52 18 28 1004.7 1004.8 22.4
24/10:09pm 5.5 -2.1 3.0 84 1.0 SSW 32 52 17 28 1004.6 1004.7 22.2
24/10:00pm 5.3 -1.5 3.0 85 1.0 SSW 28 44 15 24 1004.5 1004.6 22.0
24/09:30pm 4.7 -1.4 2.7 87 0.8 SSW 24 43 13 23 1003.9 1004.0 21.2
24/09:00pm 5.0 -0.6 3.2 88 0.7 SSW 22 35 12 19 1003.4 1003.5 20.6
24/08:30pm 4.9 -1.1 3.4 90 0.6 SSW 24 37 13 20 1003.3 1003.4 18.6
24/08:00pm 5.0 -3.5 3.2 88 0.7 SSW 37 59 20 32 1002.8 1002.9 13.0
24/07:30pm 6.2 -1.1 4.7 90 0.7 SSW 32 50 17 27 1002.3 1002.4 7.6
24/07:00pm 7.7 -0.2 6.0 89 0.8 SSW 37 59 20 32 1001.4 1001.5 1.8
24/06:47pm 8.6 2.5 6.6 87 0.9 SSW 28 57 15 31 1000.8 1000.9 0.4
24/06:30pm 10.0 5.7 7.9 87 1.0 S 20 35 11 19 1000.8 1000.9 0.0
24/06:00pm 10.3 7.8 8.1 86 1.1 SE 11 17 6 9 1000.6 1000.7 0.0
24/05:30pm 10.5 7.2 8.1 85 1.2 S 15 22 8 12 999.9 1000.0 0.0
24/05:00pm 10.8 4.7 8.2 84 1.3 SE 30 44 16 24 1000.1 1000.2 0.0
24/04:41pm 12.4 8.2 7.5 72 2.4 ENE 19 54 10 29 999.4 999.5 0.0
24/04:30pm 16.7 12.5 3.7 42 6.0 WNW 15 28 8 15 999.7 999.8 0.0
24/04:00pm 17.3 11.0 3.6 40 6.4 NW 26 41 14 22 999.9 1000.0 0.0
24/03:30pm 17.5 11.3 4.5 42 6.2 NW 26 43 14 23 999.7 999.8 0.0
24/03:00pm 17.7 11.2 4.6 42 6.3 NW 28 48 15 26 1000.0 1000.1 0.0
24/02:30pm 17.7 10.3 5.0 43 6.1 NW 33 54 18 29 1000.4 1000.5 0.0
24/02:00pm 16.9 9.4 4.3 43 6.0 NW 33 56 18 30 1000.6 1000.7 0.0
24/01:30pm 16.8 9.5 4.5 44 5.8 NW 32 50 17 27 1001.0 1001.1 0.0
24/01:09pm 17.3 10.5 5.3 45 5.8 NW 30 54 16 29 1001.2 1001.3 0.0
24/01:00pm 17.8 13.4 6.7 48 5.6 NW 19 37 10 20 1001.5 1001.6 0.0
24/12:54pm 17.1 11.9 5.7 47 5.5 NW 22 39 12 21 1001.7 1001.8 0.0
24/12:31pm 17.0 9.8 5.9 48 5.4 NNW 33 61 18 33 1002.1 1002.2 0.0
24/12:30pm 16.9 9.7 5.8 48 5.4 NNW 33 61 18 33 1002.1 1002.2 0.0
24/12:19pm 16.9 10.7 6.1 49 5.3 NNW 28 50 15 27 1002.4 1002.5 0.0
24/12:00pm 15.6 9.8 6.1 53 4.6 NNW 26 37 14 20 1003.0 1003.1 0.0
24/11:30am 15.2 9.7 5.7 53 4.5 NNW 24 37 13 20 1003.5 1003.6 0.0
24/11:00am 15.5 8.8 5.4 51 4.8 NW 30 46 16 25 1003.5 1003.6 0.0
24/10:51am 15.1 8.7 5.0 51 4.8 NW 28 48 15 26 1003.6 1003.7 0.0
24/10:30am 14.9 9.5 4.3 49 4.9 NW 22 43 12 23 1003.8 1003.9 0.0
24/10:00am 14.6 8.7 4.0 49 4.9 NW 24 39 13 21 1004.4 1004.5 0.0
24/09:30am 13.9 7.3 4.2 52 4.5 NNW 28 43 15 23 1004.6 1004.7 0.0
24/09:00am 12.4 5.0 4.1 57 3.8 NNW 32 52 17 28 1004.7 1004.8 0.0
24/08:45am 12.2 5.6 4.2 58 3.6 NNW 28 46 15 25 1004.6 1004.7 0.0
24/08:30am 12.0 6.1 4.0 58 3.6 NNW 24 37 13 20 1004.7 1004.8 0.0
24/08:00am 11.4 6.3 4.2 61 3.2 NNW 20 32 11 17 1005.4 1005.5 0.0
24/07:30am 10.9 5.4 3.9 62 3.1 N 22 37 12 20 1005.3 1005.4 0.0
24/07:00am 10.6 5.0 3.6 62 3.1 N 22 33 12 18 1005.4 1005.5 0.0
24/06:30am 10.5 4.2 3.5 62 3.1 N 26 33 14 18 1005.4 1005.5 0.0
24/06:00am 10.7 4.7 3.5 61 3.2 N 24 35 13 19 1005.3 1005.4 0.0
24/05:30am 10.9 4.6 3.5 60 3.3 N 26 41 14 22 1005.2 1005.3 0.0
24/05:00am 10.8 5.6 3.4 60 3.3 N 20 30 11 16 1005.5 1005.6 0.0
24/04:30am 11.1 5.5 3.4 59 3.4 NNW 22 33 12 18 1005.8 1005.9 0.0
24/04:00am 11.1 6.1 3.4 59 3.4 N 19 32 10 17 1006.0 1006.1 0.0
24/03:30am 11.3 6.2 4.1 61 3.2 NNW 20 32 11 17 1006.1 1006.2 0.0
24/03:08am 11.4 4.8 4.2 61 3.2 NNW 28 52 15 28 1006.2 1006.3 0.0
24/03:00am 11.3 5.5 4.3 62 3.2 NNW 24 35 13 19 1006.3 1006.4 0.0
24/02:30am 11.2 5.8 4.7 64 2.9 NNW 22 33 12 18 1006.7 1006.8 0.0
24/02:00am 10.8 5.4 4.3 64 2.9 NNW 22 35 12 19 1006.9 1007.0 0.0
24/01:30am 10.7 4.9 4.4 65 2.8 NNW 24 35 13 19 1007.1 1007.2 0.0
24/01:00am 10.4 4.9 4.1 65 2.8 N 22 35 12 19 1007.7 1007.8 0.0
24/12:30am 10.6 4.7 4.1 64 2.9 N 24 35 13 19 1008.3 1008.4 0.0
24/12:00am 10.7 5.2 4.2 64 2.9 N 22 35 12 19 1008.8 1008.9 0.0
 
Date/Time
EST
Temp
°C
App
Temp
°C
Dew
Point
°C
Rel
Hum
%
Delta-T
°C
Wind Press
QNH
hPa
Press
MSL
hPa
Rain since
9am
mm
Dir  Spd
km/h
Gust
km/h
Spd
kts
Gust
kts
23/11:30pm 10.5 6.4 4.2 65 2.8 NNW 15 24 8 13 1009.5 1009.6 0.0
23/11:00pm 9.8 6.1 4.2 68 2.5 NNW 13 19 7 10 1009.8 1009.9 0.0
23/10:30pm 9.5 5.4 4.1 69 2.4 NNW 15 24 8 13 1009.9 1010.0 0.0
23/10:00pm 9.6 5.4 4.0 68 2.5 NNW 15 22 8 12 1010.2 1010.3 0.0
23/09:30pm 10.2 5.1 4.1 66 2.7 NNW 20 32 11 17 1009.9 1010.0 0.0
23/09:00pm 10.5 5.0 4.2 65 2.8 NNW 22 30 12 16 1010.1 1010.2 0.0
23/08:30pm 10.8 5.9 4.3 64 2.9 NNW 19 30 10 16 1010.5 1010.5 0.0
23/08:00pm 11.5 4.9 4.3 61 3.3 NNW 28 44 15 24 1010.6 1010.6 0.0
23/07:30pm 11.9 5.3 4.4 60 3.4 NNW 28 41 15 22 1010.7 1010.7 0.0
23/07:00pm 12.2 5.6 4.4 59 3.5 NNW 28 39 15 21 1010.7 1010.7 0.0
23/06:30pm 12.6 6.0 4.3 57 3.8 NNW 28 41 15 22 1010.7 1010.7 0.0
23/06:00pm 12.9 7.0 4.1 55 4.0 NNW 24 37 13 20 1010.4 1010.4 0.0
23/05:30pm 13.5 6.9 4.1 53 4.3 NNW 28 43 15 23 1010.2 1010.3 0.0
23/05:00pm 14.2 7.9 3.7 49 4.8 NW 26 37 14 20 1010.5 1010.5 0.0
23/04:30pm 14.9 9.0 3.7 47 5.1 NW 24 39 13 21 1010.8 1010.8 0.0
23/04:00pm 15.2 8.6 4.0 47 5.2 NNW 28 39 15 21 1010.9 1010.9 0.0
23/03:30pm 15.4 9.6 4.2 47 5.2 NNW 24 39 13 21 1011.3 1011.3 0.0
23/03:00pm 15.7 10.7 4.4 47 5.3 NNW 20 33 11 18 1011.7 1011.7 0.0
23/02:30pm 14.9 8.2 3.4 46 5.2 NNW 28 39 15 21 1012.0 1012.0 0.0
23/02:00pm 14.8 7.7 3.3 46 5.2 NNW 30 43 16 23 1012.4 1012.5 0.0
23/01:30pm 14.4 7.6 3.2 47 5.1 NNW 28 41 15 22 1012.8 1012.9 0.0
23/01:00pm 13.9 6.3 2.8 47 4.9 NNW 32 44 17 24 1013.2 1013.3 0.0
23/12:33pm 13.4 5.2 2.9 49 4.7 NNW 35 54 19 29 1013.5 1013.6 0.0
23/12:30pm 13.3 5.7 2.8 49 4.7 NNW 32 48 17 26 1013.5 1013.6 0.0
23/12:00pm 12.9 5.3 3.0 51 4.4 NW 32 50 17 27 1014.2 1014.3 0.0
23/11:57am 12.8 5.6 2.9 51 4.4 NNW 30 50 16 27 1014.3 1014.4 0.0
23/11:30am 12.5 6.8 2.9 52 4.2 NNW 22 39 12 21 1015.1 1015.2 0.0
23/11:00am 11.4 5.6 2.4 54 3.9 NNW 22 30 12 16 1015.8 1015.9 0.0
23/10:30am 10.5 5.0 2.1 56 3.6 NNW 20 30 11 16 1016.5 1016.6 0.0
23/10:00am 10.1 5.2 2.0 57 3.4 NNW 17 26 9 14 1017.0 1017.1 0.0
23/09:30am 9.4 4.5 1.8 59 3.2 NNW 17 22 9 12 1017.3 1017.4 0.0
23/09:00am 7.9 3.3 1.7 65 2.5 NNW 15 20 8 11 1017.7 1017.8 0.2
23/08:30am 6.0 1.3 1.0 70 2.0 NNW 15 24 8 13 1017.9 1018.0 0.2
23/08:00am 4.2 0.6 0.9 79 1.3 NW 9 15 5 8 1018.2 1018.3 0.2
23/07:30am 2.9 -0.4 0.1 82 1.0 W 7 11 4 6 1018.4 1018.5 0.2
23/07:00am 2.6 -1.1 0.2 84 0.9 WSW 9 15 5 8 1018.5 1018.6 0.2
23/06:30am 2.0 -1.4 -0.6 83 0.9 W 7 13 4 7 1018.6 1018.7 0.2
23/06:00am 2.4 -1.7 -0.2 83 1.0 WSW 11 13 6 7 1018.7 1018.8 0.2
23/05:30am 2.4 -1.0 -0.4 82 1.0 W 7 9 4 5 1018.6 1018.7 0.2
23/05:00am 2.5 -1.2 -0.1 83 1.0 W 9 13 5 7 1018.6 1018.7 0.2
23/04:30am 2.5 -0.7 -0.3 82 1.0 W 6 11 3 6 1018.5 1018.6 0.2
23/04:00am 2.8 -0.9 0.0 82 1.0 W 9 13 5 7 1018.5 1018.6 0.2
23/03:30am 3.1 -0.6 0.0 80 1.2 W 9 13 5 7 1018.7 1018.8 0.2
23/03:00am 3.3 -0.4 0.2 80 1.2 WSW 9 15 5 8 1018.9 1019.0 0.2
23/02:30am 2.9 -1.2 0.0 81 1.1 W 11 15 6 8 1019.3 1019.4 0.2
23/02:00am 3.5 -0.9 0.2 79 1.2 WSW 13 17 7 9 1019.7 1019.8 0.2
23/01:30am 3.7 -0.3 0.4 79 1.3 WSW 11 17 6 9 1019.8 1019.9 0.2
23/01:00am 3.7 0.1 0.6 80 1.2 SW 9 13 5 7 1020.0 1020.1 0.2
23/12:30am 3.3 -0.3 0.4 81 1.1 WSW 9 15 5 8 1020.5 1020.6 0.2
23/12:00am 3.3 -1.4 0.7 83 1.0 WSW 15 17 8 9 1021.0 1021.1 0.2
 
Date/Time
EST
Temp
°C
App
Temp
°C
Dew
Point
°C
Rel
Hum
%
Delta-T
°C
Wind Press
QNH
hPa
Press
MSL
hPa
Rain since
9am
mm
Dir  Spd
km/h
Gust
km/h
Spd
kts
Gust
kts
22/11:30pm 3.6 0.0 0.7 81 1.1 WSW 9 13 5 7 1021.0 1021.1 0.2
22/11:00pm 3.6 -0.3 1.0 83 1.0 WSW 11 13 6 7 1021.1 1021.2 0.2
22/10:30pm 3.5 -0.1 0.9 83 1.0 WSW 9 13 5 7 1021.4 1021.5 0.2
22/10:00pm 4.0 0.9 1.2 82 1.1 WSW 7 11 4 6 1021.4 1021.5 0.2
22/09:30pm 4.2 0.3 1.4 82 1.1 WSW 11 15 6 8 1021.6 1021.7 0.2
22/09:00pm 4.2 0.7 1.4 82 1.1 W 9 13 5 7 1021.6 1021.7 0.2
22/08:30pm 4.6 1.1 1.3 79 1.3 WSW 9 13 5 7 1021.5 1021.6 0.2
22/08:00pm 5.7 2.7 1.8 76 1.6 NE 7 9 4 5 1021.3 1021.4 0.2
22/07:30pm 5.1 1.2 1.4 77 1.5 W 11 15 6 8 1021.2 1021.3 0.2
22/07:00pm 6.0 2.1 1.2 71 1.9 WSW 11 15 6 8 1021.0 1021.1 0.2
22/06:30pm 7.4 4.2 1.0 64 2.6 SW 7 13 4 7 1020.3 1020.4 0.2
22/06:00pm 7.8 4.6 1.0 62 2.7 WSW 7 13 4 7 1020.1 1020.2 0.2
22/05:30pm 8.0 3.7 1.2 62 2.8 SW 13 28 7 15 1019.7 1019.8 0.2
22/05:00pm 8.5 2.9 1.4 61 2.9 SW 20 33 11 18 1019.3 1019.4 0.2
22/04:30pm 8.8 2.9 1.5 60 3.0 SW 22 37 12 20 1019.0 1019.1 0.2
22/04:00pm 9.3 3.9 1.2 57 3.3 SW 19 35 10 19 1018.5 1018.6 0.2
22/03:30pm 9.5 4.0 0.9 55 3.5 WSW 19 32 10 17 1018.3 1018.4 0.2
22/03:00pm 9.6 3.3 1.3 56 3.4 SW 24 52 13 28 1017.6 1017.7 0.2
22/02:30pm 10.0 4.6 1.4 55 3.6 SW 19 37 10 20 1017.7 1017.8 0.2
22/02:00pm 10.4 5.0 1.0 52 3.9 WSW 19 37 10 20 1017.2 1017.3 0.2
22/01:30pm 10.2 3.9 1.3 54 3.7 SW 24 43 13 23 1016.9 1017.0 0.2
22/01:00pm 9.8 4.9 1.7 57 3.4 SW 17 33 9 18 1017.0 1017.1 0.2

Other formats

Comma delimited format used in spreadsheet applications
http://www.bom.gov.au/fwo/IDT60801/IDT60801.94970.axf

JavaScript Object Notation format (JSON) in row-major order
http://www.bom.gov.au/fwo/IDT60801/IDT60801.94970.json

Data quality

Most of these data are generated automatically and are frequently updated. Quality checks on data are not normally performed. It is possible for incorrect values to appear. Refer to information at About Latest Weather Observations and please check the disclaimer before using these data.